createdAt,value
2023-01-25T00:00:50.848Z,78.00
2023-01-25T00:03:19.189Z,77.73
2023-01-25T00:05:49.421Z,76.91
2023-01-25T00:08:17.524Z,77.30
2023-01-25T00:10:52.712Z,77.73
2023-01-25T00:13:28.705Z,77.87
2023-01-25T00:16:09.539Z,78.24
2023-01-25T00:18:37.565Z,78.11
2023-01-25T00:21:13.749Z,78.09
2023-01-25T00:23:41.655Z,77.64
2023-01-25T00:26:10.079Z,78.23
2023-01-25T00:28:46.658Z,78.55
2023-01-25T00:31:22.974Z,77.84
2023-01-25T00:33:57.295Z,77.98
2023-01-25T00:36:41.615Z,77.85
2023-01-25T00:39:16.909Z,77.23
2023-01-25T00:41:48.142Z,77.73
2023-01-25T00:44:20.052Z,76.78
2023-01-25T00:46:49.142Z,77.77
2023-01-25T00:49:26.216Z,77.27
2023-01-25T00:51:56.104Z,77.02
2023-01-25T00:54:27.000Z,77.16
2023-01-25T00:56:58.351Z,77.30
2023-01-25T00:59:28.592Z,76.80
2023-01-25T01:01:58.572Z,76.80
2023-01-25T01:04:27.268Z,77.21
2023-01-25T01:07:04.302Z,76.92
2023-01-25T01:09:34.742Z,76.67
2023-01-25T01:12:06.612Z,77.02
2023-01-25T01:14:40.896Z,77.08
2023-01-25T01:17:19.561Z,76.89
2023-01-25T01:19:47.724Z,77.60
2023-01-25T01:22:16.738Z,77.19
2023-01-25T01:24:44.795Z,77.64
2023-01-25T01:27:13.025Z,77.59
2023-01-25T01:29:44.921Z,77.42
2023-01-25T01:32:12.941Z,77.73
2023-01-25T01:34:41.059Z,77.95
2023-01-25T01:37:10.874Z,77.92
2023-01-25T01:39:49.163Z,77.52
2023-01-25T01:42:21.614Z,77.79
2023-01-25T01:44:56.247Z,77.97
2023-01-25T01:47:32.491Z,78.27
2023-01-25T01:50:08.629Z,77.20
2023-01-25T01:52:41.399Z,77.31
2023-01-25T01:55:16.779Z,77.67
2023-01-25T01:57:50.620Z,78.16
2023-01-25T02:00:28.754Z,78.09
2023-01-25T02:03:02.052Z,77.81
2023-01-25T02:05:38.535Z,78.12
2023-01-25T02:08:08.582Z,77.98
2023-01-25T02:10:42.702Z,77.31
2023-01-25T02:13:14.044Z,77.54
2023-01-25T02:15:47.593Z,77.72
2023-01-25T02:18:18.906Z,78.04
2023-01-25T02:20:51.520Z,77.90
2023-01-25T02:23:37.394Z,77.49
2023-01-25T02:26:14.728Z,77.87
2023-01-25T02:28:52.420Z,78.23
2023-01-25T02:31:22.386Z,78.60
2023-01-25T02:33:52.414Z,78.27
2023-01-25T02:36:25.843Z,77.74
2023-01-25T02:39:00.293Z,77.83
2023-01-25T02:41:35.338Z,77.92
2023-01-25T02:44:12.989Z,78.32
2023-01-25T02:46:45.394Z,78.57
2023-01-25T02:49:16.478Z,78.44
2023-01-25T02:51:47.141Z,79.02
2023-01-25T02:54:27.851Z,78.21
2023-01-25T02:57:06.265Z,78.37
2023-01-25T02:59:37.870Z,78.73
2023-01-25T03:02:06.419Z,78.51
2023-01-25T03:04:46.660Z,78.74
2023-01-25T03:07:17.749Z,78.95
2023-01-25T03:09:47.180Z,79.10
2023-01-25T03:12:22.595Z,79.04
2023-01-25T03:14:58.386Z,79.20
2023-01-25T03:17:27.285Z,79.11
2023-01-25T03:20:02.020Z,78.82
2023-01-25T03:22:36.647Z,79.54
2023-01-25T03:25:07.132Z,79.43
2023-01-25T03:27:43.968Z,79.57
2023-01-25T03:30:15.824Z,79.43
2023-01-25T03:32:47.945Z,79.80
2023-01-25T03:35:21.317Z,79.98
2023-01-25T03:37:52.272Z,78.69
2023-01-25T03:40:24.555Z,79.73
2023-01-25T03:42:55.168Z,79.63
2023-01-25T03:45:25.919Z,80.21
2023-01-25T03:47:59.053Z,79.76
2023-01-25T03:50:28.755Z,79.49
2023-01-25T03:53:08.334Z,80.26
2023-01-25T03:55:36.986Z,80.00
2023-01-25T03:58:06.525Z,80.10
2023-01-25T04:00:35.263Z,80.72
2023-01-25T04:03:03.915Z,80.80
2023-01-25T04:05:35.067Z,80.71
2023-01-25T04:08:07.703Z,80.94
2023-01-25T04:10:39.918Z,81.01
2023-01-25T04:13:14.085Z,80.27
2023-01-25T04:15:42.591Z,80.39
2023-01-25T04:18:11.017Z,81.04
2023-01-25T04:20:39.053Z,80.60
2023-01-25T04:23:13.743Z,80.98
2023-01-25T04:25:42.520Z,80.23
2023-01-25T04:28:14.742Z,79.99
2023-01-25T04:30:43.557Z,80.13
2023-01-25T04:33:15.053Z,79.84
2023-01-25T04:35:48.952Z,80.38
2023-01-25T04:38:23.396Z,80.31
2023-01-25T04:40:53.087Z,80.35
2023-01-25T04:43:28.551Z,80.88
2023-01-25T04:45:59.354Z,80.51
2023-01-25T04:48:27.205Z,81.37
2023-01-25T04:50:58.371Z,80.58
2023-01-25T04:53:29.696Z,80.42
2023-01-25T04:55:58.344Z,79.71
2023-01-25T04:58:30.492Z,80.45
2023-01-25T05:01:01.530Z,80.83
2023-01-25T05:03:29.739Z,80.73
2023-01-25T05:05:57.981Z,80.98
2023-01-25T05:08:34.590Z,80.33
2023-01-25T05:11:05.866Z,80.57
2023-01-25T05:13:35.554Z,80.43
2023-01-25T05:16:03.531Z,80.67
2023-01-25T05:18:47.164Z,80.86
2023-01-25T05:21:30.174Z,80.93
2023-01-25T05:23:58.734Z,80.91
2023-01-25T05:26:46.436Z,81.21
2023-01-25T05:29:16.112Z,81.01
2023-01-25T05:31:50.972Z,80.81
2023-01-25T05:34:20.738Z,81.01
2023-01-25T05:36:49.863Z,80.61
2023-01-25T05:39:19.111Z,80.00
2023-01-25T05:41:48.090Z,80.29
2023-01-25T05:44:20.963Z,79.44
2023-01-25T05:46:50.335Z,80.11
2023-01-25T05:49:19.771Z,80.72
2023-01-25T05:51:52.370Z,80.50
2023-01-25T05:54:20.637Z,80.57
2023-01-25T05:56:53.274Z,80.69
2023-01-25T05:59:24.942Z,80.34
2023-01-25T06:02:05.660Z,81.16
2023-01-25T06:04:37.165Z,80.77
2023-01-25T06:07:08.407Z,81.50
2023-01-25T06:09:37.514Z,81.89
2023-01-25T06:12:09.172Z,80.89
2023-01-25T06:14:41.473Z,81.19
2023-01-25T06:17:12.457Z,80.32
2023-01-25T06:19:45.280Z,79.95
2023-01-25T06:22:15.368Z,80.21
2023-01-25T06:24:43.094Z,79.72
2023-01-25T06:27:12.658Z,80.33
2023-01-25T06:29:42.900Z,80.98
2023-01-25T06:32:14.463Z,81.04
2023-01-25T06:34:47.383Z,80.34
2023-01-25T06:37:15.969Z,80.93
2023-01-25T06:39:47.181Z,80.41
2023-01-25T06:42:16.101Z,80.35
2023-01-25T06:44:45.439Z,80.97
2023-01-25T06:47:14.855Z,81.55
2023-01-25T06:49:43.992Z,81.19
2023-01-25T06:52:13.479Z,81.22
2023-01-25T06:54:49.953Z,81.03
2023-01-25T06:57:19.925Z,81.13
2023-01-25T06:59:53.851Z,81.29
2023-01-25T07:02:24.053Z,81.73
2023-01-25T07:04:53.551Z,81.76
2023-01-25T07:07:33.303Z,81.36
2023-01-25T07:10:02.211Z,81.74
2023-01-25T07:12:31.149Z,82.07
2023-01-25T07:15:00.646Z,81.84
2023-01-25T07:17:29.220Z,81.06
2023-01-25T07:20:00.658Z,81.78
2023-01-25T07:22:33.738Z,81.48
2023-01-25T07:25:02.529Z,82.33
2023-01-25T07:27:41.083Z,81.27
2023-01-25T07:30:16.590Z,81.57
2023-01-25T07:32:47.438Z,81.86
2023-01-25T07:35:16.748Z,82.26
2023-01-25T07:37:47.208Z,81.65
2023-01-25T07:40:34.822Z,81.95
2023-01-25T07:43:04.114Z,81.38
2023-01-25T07:45:34.443Z,81.16
2023-01-25T07:48:11.188Z,81.49
2023-01-25T07:50:39.855Z,81.48
2023-01-25T07:53:15.957Z,81.57
2023-01-25T07:55:45.945Z,80.94
2023-01-25T07:58:15.775Z,80.76
2023-01-25T08:00:49.281Z,80.77
2023-01-25T08:03:17.820Z,80.51
2023-01-25T08:05:49.215Z,81.01
2023-01-25T08:08:17.752Z,81.12
2023-01-25T08:10:48.951Z,81.43
2023-01-25T08:13:20.955Z,80.88
2023-01-25T08:16:03.250Z,80.64
2023-01-25T08:18:35.243Z,80.71
2023-01-25T08:21:06.042Z,81.22
2023-01-25T08:23:35.403Z,80.97
2023-01-25T08:26:04.559Z,81.73
2023-01-25T08:28:37.196Z,81.38
2023-01-25T08:31:13.212Z,80.14
2023-01-25T08:33:46.839Z,80.30
2023-01-25T08:36:16.919Z,80.93
2023-01-25T08:38:56.203Z,80.80
2023-01-25T08:41:26.213Z,80.55
2023-01-25T08:43:57.344Z,80.62
2023-01-25T08:46:31.833Z,81.30
2023-01-25T08:49:02.873Z,80.50
2023-01-25T08:51:40.090Z,80.40
2023-01-25T08:54:09.797Z,80.48
2023-01-25T08:56:39.413Z,79.99
2023-01-25T08:59:09.971Z,79.42
2023-01-25T09:01:43.509Z,79.11
2023-01-25T09:04:14.008Z,79.67
2023-01-25T09:06:45.092Z,79.21
2023-01-25T09:09:14.535Z,79.92
2023-01-25T09:20:02.358Z,80.53
2023-01-25T09:22:34.518Z,80.92
2023-01-25T09:25:02.498Z,81.05
2023-01-25T09:27:35.973Z,81.00
2023-01-25T09:30:13.441Z,79.81
2023-01-25T09:32:48.859Z,79.86
2023-01-25T09:35:22.175Z,79.39
2023-01-25T09:37:54.119Z,79.12
2023-01-25T09:40:32.226Z,79.21
2023-01-25T09:43:06.746Z,79.77
2023-01-25T09:45:38.691Z,80.09
2023-01-25T09:48:22.912Z,80.21
2023-01-25T09:51:17.624Z,80.79
2023-01-25T09:53:56.015Z,80.94
2023-01-25T09:56:29.676Z,81.29
2023-01-25T09:59:04.789Z,81.59
2023-01-25T10:01:50.114Z,80.93
2023-01-25T10:04:31.155Z,80.44
2023-01-25T10:07:17.465Z,80.06
2023-01-25T10:09:54.731Z,80.23
2023-01-25T10:12:30.091Z,79.31
2023-01-25T10:15:04.747Z,79.82
2023-01-25T10:17:44.351Z,78.90
2023-01-25T10:20:26.155Z,79.82
2023-01-25T10:23:26.605Z,79.89
2023-01-25T10:26:00.144Z,80.89
2023-01-25T10:28:57.500Z,79.90
2023-01-25T10:31:34.059Z,80.48
2023-01-25T10:34:14.271Z,80.22
2023-01-25T10:37:00.238Z,80.49
2023-01-25T10:39:36.688Z,80.47
2023-01-25T10:42:11.182Z,80.59
2023-01-25T10:44:40.369Z,80.24
2023-01-25T10:47:23.514Z,80.79
2023-01-25T10:49:55.847Z,80.77
2023-01-25T10:52:33.935Z,80.32
2023-01-25T10:55:28.639Z,80.46
2023-01-25T10:58:04.815Z,80.45
2023-01-25T11:00:41.785Z,81.21
2023-01-25T11:03:33.735Z,81.28
2023-01-25T11:06:14.378Z,80.81
2023-01-25T11:08:47.342Z,81.29
2023-01-25T11:11:47.517Z,80.11
2023-01-25T11:14:21.133Z,79.88
2023-01-25T11:17:01.021Z,80.56
2023-01-25T11:19:33.523Z,80.50
2023-01-25T11:22:04.042Z,80.56
2023-01-25T11:24:39.617Z,80.57
2023-01-25T11:27:23.876Z,80.64
2023-01-25T11:30:13.434Z,80.00
2023-01-25T11:32:46.084Z,79.90
2023-01-25T11:35:17.903Z,80.18
2023-01-25T11:38:09.476Z,79.84
2023-01-25T11:40:44.934Z,78.78
2023-01-25T11:43:31.993Z,78.45
2023-01-25T11:46:25.233Z,78.58
2023-01-25T11:49:21.242Z,79.33
2023-01-25T11:51:56.959Z,80.17
2023-01-25T11:54:45.909Z,81.21
2023-01-25T11:57:45.150Z,80.59
2023-01-25T12:00:32.050Z,79.97
2023-01-25T12:03:39.347Z,79.92
2023-01-25T12:06:17.382Z,80.58
2023-01-25T12:09:16.721Z,79.19
2023-01-25T12:11:58.372Z,79.33
2023-01-25T12:14:42.190Z,80.24
2023-01-25T12:17:31.033Z,80.50
2023-01-25T12:20:26.211Z,80.33
2023-01-25T12:23:13.927Z,81.29
2023-01-25T12:25:58.013Z,80.44
2023-01-25T12:28:35.135Z,80.72
2023-01-25T12:31:13.545Z,80.04
2023-01-25T12:33:52.007Z,79.68
2023-01-25T12:36:31.191Z,80.57
2023-01-25T12:39:06.164Z,81.43
2023-01-25T12:41:42.256Z,80.73
2023-01-25T12:44:22.137Z,80.63
2023-01-25T12:47:15.152Z,80.70
2023-01-25T12:49:54.766Z,81.01
2023-01-25T12:52:31.638Z,81.30
2023-01-25T12:55:03.860Z,80.74
2023-01-25T12:57:41.244Z,81.43
2023-01-25T13:00:23.082Z,81.61
2023-01-25T13:03:14.056Z,81.12
2023-01-25T13:05:53.339Z,81.62
2023-01-25T13:08:38.722Z,81.56
2023-01-25T13:11:20.676Z,81.23
2023-01-25T13:13:53.124Z,79.60
2023-01-25T13:16:41.265Z,80.18
2023-01-25T13:19:21.230Z,78.76
2023-01-25T13:21:56.747Z,79.82
2023-01-25T13:24:34.920Z,80.28
2023-01-25T13:27:05.824Z,79.16
2023-01-25T13:30:35.168Z,80.38
2023-01-25T13:33:08.257Z,79.89
2023-01-25T13:35:39.483Z,79.38
2023-01-25T13:38:29.374Z,80.83
2023-01-25T13:41:21.707Z,80.39
2023-01-25T13:44:04.682Z,81.03
2023-01-25T13:46:34.173Z,81.25
2023-01-25T13:49:09.231Z,81.97
2023-01-25T13:51:44.557Z,80.46
2023-01-25T13:54:19.291Z,80.33
2023-01-25T13:56:48.957Z,80.54
2023-01-25T13:59:29.522Z,81.45
2023-01-25T14:01:58.847Z,81.81
2023-01-25T14:04:31.717Z,81.64
2023-01-25T14:07:11.262Z,80.97
2023-01-25T14:09:43.411Z,80.69
2023-01-25T14:12:17.991Z,80.59
2023-01-25T14:14:51.296Z,80.17
2023-01-25T14:17:25.452Z,80.05
2023-01-25T14:19:57.077Z,79.31
2023-01-25T14:22:29.791Z,80.28
2023-01-25T14:25:20.435Z,80.23
2023-01-25T14:27:54.685Z,79.90
2023-01-25T14:30:28.385Z,79.25
2023-01-25T14:33:01.506Z,78.45
2023-01-25T14:36:15.798Z,78.87
2023-01-25T14:38:55.136Z,78.63
2023-01-25T14:41:29.269Z,79.44
2023-01-25T14:44:05.430Z,81.34
2023-01-25T14:46:38.529Z,80.77
2023-01-25T14:49:29.655Z,81.51
2023-01-25T14:52:06.944Z,79.71
2023-01-25T14:54:36.988Z,80.62
2023-01-25T14:57:07.063Z,80.55
2023-01-25T14:59:41.830Z,80.22
2023-01-25T15:02:25.072Z,81.45
2023-01-25T15:05:15.097Z,81.10
2023-01-25T15:07:50.838Z,82.09
2023-01-25T15:10:25.493Z,80.84
2023-01-25T15:13:13.573Z,81.63
2023-01-25T15:16:02.433Z,81.17
2023-01-25T15:18:57.486Z,81.13
2023-01-25T15:21:33.902Z,81.65
2023-01-25T15:24:07.448Z,81.32
2023-01-25T15:26:36.784Z,81.50
2023-01-25T15:29:17.481Z,80.75
2023-01-25T15:31:52.857Z,81.09
2023-01-25T15:34:25.995Z,81.40
2023-01-25T15:37:00.727Z,82.02
2023-01-25T15:39:32.621Z,81.69
2023-01-25T15:42:03.352Z,81.77
2023-01-25T15:44:43.484Z,82.05
2023-01-25T15:47:17.228Z,82.63
2023-01-25T15:49:50.135Z,82.05
2023-01-25T15:52:23.674Z,81.36
2023-01-25T15:55:01.473Z,81.50
2023-01-25T15:57:35.124Z,81.63
2023-01-25T16:00:10.480Z,82.93
2023-01-25T16:02:39.998Z,82.80
2023-01-25T16:05:08.380Z,84.90
2023-01-25T16:07:39.856Z,84.77
2023-01-25T16:10:21.058Z,81.91
2023-01-25T16:12:55.356Z,81.90
2023-01-25T16:15:26.915Z,82.01
2023-01-25T16:17:57.596Z,82.36
2023-01-25T16:20:27.487Z,82.61
2023-01-25T16:22:59.341Z,82.80
2023-01-25T16:25:29.553Z,82.24
2023-01-25T16:28:02.563Z,82.70
2023-01-25T16:30:34.056Z,82.66
2023-01-25T16:33:06.612Z,83.03
2023-01-25T16:35:34.862Z,82.88
2023-01-25T16:38:04.144Z,82.85
2023-01-25T16:40:43.242Z,82.31
2023-01-25T16:43:15.182Z,82.83
2023-01-25T16:45:45.258Z,82.37
2023-01-25T16:48:17.541Z,82.62
2023-01-25T16:50:45.770Z,81.93
2023-01-25T16:53:20.415Z,82.26
2023-01-25T16:55:55.227Z,81.75
2023-01-25T16:58:33.724Z,81.88
2023-01-25T17:01:10.184Z,81.99
2023-01-25T17:03:38.121Z,81.95
2023-01-25T17:06:08.705Z,81.83
2023-01-25T17:08:37.496Z,82.11
2023-01-25T17:11:10.705Z,82.34
2023-01-25T17:13:41.315Z,82.41
2023-01-25T17:16:14.553Z,82.14
2023-01-25T17:18:42.568Z,82.14
2023-01-25T17:21:16.946Z,81.90
2023-01-25T17:23:47.634Z,82.24
2023-01-25T17:26:19.720Z,82.24
2023-01-25T17:28:50.744Z,82.68
2023-01-25T17:31:22.429Z,82.71
2023-01-25T17:33:59.483Z,82.37
2023-01-25T17:36:32.052Z,82.26
2023-01-25T17:39:13.308Z,82.82
2023-01-25T17:41:47.244Z,83.04
2023-01-25T17:44:20.410Z,83.03
2023-01-25T17:46:49.959Z,83.03
2023-01-25T17:49:22.301Z,82.21
2023-01-25T17:51:58.099Z,82.11
2023-01-25T17:54:26.327Z,82.37
2023-01-25T17:56:58.605Z,82.30
2023-01-25T17:59:30.503Z,81.84
2023-01-25T18:02:00.428Z,82.11
2023-01-25T18:04:38.628Z,80.77
2023-01-25T18:07:09.090Z,81.11
2023-01-25T18:09:37.599Z,81.73
2023-01-25T18:12:12.333Z,81.68
2023-01-25T18:14:47.456Z,81.59
2023-01-25T18:17:18.087Z,82.01
2023-01-25T18:19:49.485Z,82.23
2023-01-25T18:22:20.433Z,81.90
2023-01-25T18:24:48.734Z,82.45
2023-01-25T18:27:23.357Z,82.10
2023-01-25T18:30:00.742Z,82.48
2023-01-25T18:32:34.006Z,82.29
2023-01-25T18:35:04.820Z,82.51
2023-01-25T18:37:43.512Z,81.65
2023-01-25T18:40:17.721Z,82.48
2023-01-25T18:42:50.283Z,80.98
2023-01-25T18:45:18.237Z,81.45
2023-01-25T18:47:46.808Z,81.62
2023-01-25T18:50:21.461Z,82.31
2023-01-25T18:52:50.806Z,82.32
2023-01-25T18:55:21.711Z,83.87
2023-01-25T18:57:54.172Z,83.40
2023-01-25T19:00:25.117Z,83.91
2023-01-25T19:02:53.712Z,83.14
2023-01-25T19:05:24.313Z,81.63
2023-01-25T19:07:53.193Z,82.01
2023-01-25T19:10:24.201Z,82.44
2023-01-25T19:12:55.369Z,83.55
2023-01-25T19:15:33.027Z,83.66
2023-01-25T19:18:07.893Z,83.89
2023-01-25T19:20:37.953Z,82.71
2023-01-25T19:23:08.601Z,82.95
2023-01-25T19:25:36.973Z,84.40
2023-01-25T19:28:08.171Z,83.69
2023-01-25T19:30:43.243Z,83.29
2023-01-25T19:33:12.725Z,83.30
2023-01-25T19:35:44.132Z,83.40
2023-01-25T19:38:12.446Z,82.88
2023-01-25T19:40:40.743Z,83.32
2023-01-25T19:43:12.991Z,82.75
2023-01-25T19:45:42.653Z,82.59
2023-01-25T19:48:11.449Z,83.68
2023-01-25T19:50:43.172Z,83.08
2023-01-25T19:53:13.189Z,83.01
2023-01-25T19:55:41.274Z,83.83
2023-01-25T19:58:12.244Z,84.07
2023-01-25T20:00:45.121Z,82.75
2023-01-25T20:03:21.669Z,84.35
2023-01-25T20:06:04.237Z,83.79
2023-01-25T20:08:35.113Z,84.04
2023-01-25T20:11:09.105Z,82.40
2023-01-25T20:13:45.129Z,82.78
2023-01-25T20:16:17.970Z,82.98
2023-01-25T20:18:48.666Z,82.68
2023-01-25T20:21:37.108Z,82.98
2023-01-25T20:24:15.044Z,83.51
2023-01-25T20:26:45.266Z,83.21
2023-01-25T20:29:15.400Z,83.21
2023-01-25T20:31:50.189Z,82.97
2023-01-25T20:34:22.888Z,82.57
2023-01-25T20:36:53.202Z,83.03
2023-01-25T20:39:23.834Z,83.34
2023-01-25T20:41:53.707Z,82.95
2023-01-25T20:44:23.922Z,82.32
2023-01-25T20:46:53.088Z,83.34
2023-01-25T20:49:23.821Z,83.55
2023-01-25T20:51:52.242Z,83.97
2023-01-25T20:54:22.321Z,83.70
2023-01-25T20:56:50.360Z,84.05
2023-01-25T20:59:20.327Z,83.25
2023-01-25T21:01:50.616Z,83.66
2023-01-25T21:04:19.741Z,84.51
2023-01-25T21:06:52.493Z,84.18
2023-01-25T21:09:26.243Z,85.66
2023-01-25T21:11:54.975Z,84.59
2023-01-25T21:14:26.824Z,84.26
2023-01-25T21:17:00.032Z,84.41
2023-01-25T21:19:36.144Z,85.06
2023-01-25T21:22:04.628Z,84.29
2023-01-25T21:24:37.297Z,84.89
2023-01-25T21:27:09.901Z,84.41
2023-01-25T21:29:39.585Z,85.33
2023-01-25T21:32:09.846Z,85.00
2023-01-25T21:34:43.237Z,85.00
2023-01-25T21:37:11.411Z,84.47
2023-01-25T21:39:44.029Z,85.20
2023-01-25T21:42:15.656Z,85.36
2023-01-25T21:45:00.827Z,84.63
2023-01-25T21:47:33.995Z,84.11
2023-01-25T21:50:21.759Z,83.95
2023-01-25T21:52:50.364Z,84.36
2023-01-25T21:55:19.554Z,84.24
2023-01-25T21:57:50.450Z,84.70
2023-01-25T22:00:22.186Z,84.20
2023-01-25T22:02:56.279Z,83.64
2023-01-25T22:05:25.108Z,84.78
2023-01-25T22:08:02.477Z,84.32
2023-01-25T22:10:31.389Z,83.48
2023-01-25T22:12:59.802Z,83.23
2023-01-25T22:15:29.219Z,83.99
2023-01-25T22:17:59.911Z,84.06
2023-01-25T22:20:27.881Z,84.19
2023-01-25T22:22:55.988Z,85.01
2023-01-25T22:25:24.737Z,85.24
2023-01-25T22:28:00.679Z,85.02
2023-01-25T22:30:31.500Z,84.54
2023-01-25T22:33:08.448Z,84.73
2023-01-25T22:35:39.764Z,84.70
2023-01-25T22:38:08.448Z,84.45
2023-01-25T22:40:37.743Z,84.52
2023-01-25T22:43:11.320Z,85.03
2023-01-25T22:45:47.267Z,84.32
2023-01-25T22:48:18.442Z,83.90
2023-01-25T22:50:48.339Z,83.41
2023-01-25T22:53:21.893Z,84.54
2023-01-25T22:55:49.690Z,84.82
2023-01-25T22:58:25.712Z,84.22
2023-01-25T23:01:04.837Z,84.67
2023-01-25T23:03:34.886Z,84.45
2023-01-25T23:06:05.640Z,84.47
2023-01-25T23:08:37.476Z,83.83
2023-01-25T23:11:10.490Z,84.61
2023-01-25T23:13:40.622Z,85.44
2023-01-25T23:16:14.963Z,85.86
2023-01-25T23:18:50.378Z,85.10
2023-01-25T23:21:25.493Z,84.02
2023-01-25T23:23:57.991Z,84.34
2023-01-25T23:26:39.203Z,85.90
2023-01-25T23:29:10.512Z,86.03
2023-01-25T23:31:38.849Z,85.77
2023-01-25T23:34:09.653Z,86.22
2023-01-25T23:36:44.260Z,86.74
2023-01-25T23:39:17.977Z,86.63
2023-01-25T23:41:52.757Z,86.53
2023-01-25T23:44:30.458Z,85.63
2023-01-25T23:46:59.770Z,85.75
2023-01-25T23:49:29.241Z,86.37
2023-01-25T23:52:00.536Z,84.92
2023-01-25T23:54:32.216Z,85.85
2023-01-25T23:57:00.775Z,85.98
2023-01-25T23:59:30.665Z,85.68
